createdAt,value
2022-10-24T00:01:29.938Z,8.66
2022-10-24T00:03:56.522Z,8.58
2022-10-24T00:06:23.147Z,8.60
2022-10-24T00:08:49.873Z,8.52
2022-10-24T00:11:24.014Z,8.42
2022-10-24T00:13:51.288Z,8.37
2022-10-24T00:16:18.171Z,8.32
2022-10-24T00:18:44.933Z,8.30
2022-10-24T00:21:11.558Z,8.27
2022-10-24T00:23:38.259Z,8.20
2022-10-24T00:26:05.618Z,8.24
2022-10-24T00:28:33.380Z,8.19
2022-10-24T00:30:59.921Z,8.23
2022-10-24T00:33:26.494Z,8.23
2022-10-24T00:35:53.062Z,8.19
2022-10-24T00:38:20.548Z,8.16
2022-10-24T00:40:47.123Z,8.18
2022-10-24T00:43:14.696Z,8.22
2022-10-24T00:45:41.283Z,8.17
2022-10-24T00:48:14.018Z,8.15
2022-10-24T00:50:40.614Z,8.16
2022-10-24T00:53:07.314Z,8.16
2022-10-24T00:55:34.105Z,8.12
2022-10-24T00:58:01.779Z,8.12
2022-10-24T01:00:30.298Z,8.15
2022-10-24T01:02:57.168Z,8.23
2022-10-24T01:05:26.728Z,8.19
2022-10-24T01:07:53.234Z,8.13
2022-10-24T01:10:19.922Z,8.11
2022-10-24T01:12:49.564Z,8.16
2022-10-24T01:15:16.109Z,8.14
2022-10-24T01:17:45.637Z,8.10
2022-10-24T01:20:26.950Z,8.06
2022-10-24T01:22:56.626Z,8.04
2022-10-24T01:25:23.198Z,8.04
2022-10-24T01:28:09.158Z,8.06
2022-10-24T01:30:43.142Z,8.03
2022-10-24T01:33:23.081Z,7.99
2022-10-24T01:35:55.191Z,7.97
2022-10-24T01:38:21.797Z,7.91
2022-10-24T01:40:50.683Z,7.89
2022-10-24T01:43:20.547Z,7.88
2022-10-24T01:45:49.899Z,7.82
2022-10-24T01:48:20.057Z,7.84
2022-10-24T01:50:48.704Z,7.85
2022-10-24T01:53:15.376Z,7.87
2022-10-24T01:55:42.493Z,7.77
2022-10-24T01:58:09.178Z,7.73
2022-10-24T02:00:36.144Z,7.68
2022-10-24T02:03:16.721Z,7.70
2022-10-24T02:05:45.954Z,7.79
2022-10-24T02:08:18.886Z,7.75
2022-10-24T02:10:48.320Z,7.79
2022-10-24T02:13:28.146Z,7.71
2022-10-24T02:15:56.034Z,7.64
2022-10-24T02:18:23.086Z,7.68
2022-10-24T02:20:49.629Z,7.75
2022-10-24T02:23:19.016Z,7.82
2022-10-24T02:25:48.213Z,7.74
2022-10-24T02:28:20.892Z,7.66
2022-10-24T02:30:50.745Z,7.60
2022-10-24T02:33:17.738Z,7.63
2022-10-24T02:35:45.972Z,7.61
2022-10-24T02:38:18.126Z,7.55
2022-10-24T02:40:46.276Z,7.58
2022-10-24T02:43:14.351Z,7.58
2022-10-24T02:45:40.988Z,7.54
2022-10-24T02:48:10.458Z,7.50
2022-10-24T02:50:38.459Z,7.49
2022-10-24T02:53:08.684Z,7.45
2022-10-24T02:55:35.272Z,7.43
2022-10-24T02:58:01.895Z,7.44
2022-10-24T03:00:28.594Z,7.46
2022-10-24T03:02:55.212Z,7.49
2022-10-24T03:05:21.757Z,7.47
2022-10-24T03:07:48.351Z,7.50
2022-10-24T03:10:15.012Z,7.51
2022-10-24T03:12:41.686Z,7.54
2022-10-24T03:15:08.627Z,7.55
2022-10-24T03:17:35.147Z,7.55
2022-10-24T03:20:01.731Z,7.56
2022-10-24T03:22:30.596Z,7.54
2022-10-24T03:25:01.721Z,7.51
2022-10-24T03:27:28.390Z,7.43
2022-10-24T03:29:54.988Z,7.40
2022-10-24T03:32:21.667Z,7.34
2022-10-24T03:34:48.289Z,7.37
2022-10-24T03:37:14.915Z,7.44
2022-10-24T03:39:41.454Z,7.45
2022-10-24T03:42:08.001Z,7.39
2022-10-24T03:44:34.622Z,7.33
2022-10-24T03:47:01.236Z,7.32
2022-10-24T03:49:27.838Z,7.34
2022-10-24T03:52:00.210Z,7.34
2022-10-24T03:54:26.893Z,7.32
2022-10-24T03:56:53.518Z,7.30
2022-10-24T03:59:20.096Z,7.22
2022-10-24T04:01:46.764Z,7.23
2022-10-24T04:04:13.487Z,7.22
2022-10-24T04:06:40.656Z,7.26
2022-10-24T04:09:07.372Z,7.30
2022-10-24T04:11:34.003Z,7.26
2022-10-24T04:16:35.394Z,7.19
2022-10-24T04:19:02.060Z,7.17
2022-10-24T04:21:28.648Z,7.19
2022-10-24T04:23:55.231Z,7.13
2022-10-24T04:26:21.966Z,7.14
2022-10-24T04:28:48.810Z,7.13
2022-10-24T04:31:18.147Z,7.06
2022-10-24T04:33:47.689Z,7.08
2022-10-24T04:36:14.274Z,7.07
2022-10-24T04:38:40.980Z,6.96
2022-10-24T04:41:11.174Z,6.97
2022-10-24T04:43:39.290Z,6.92
2022-10-24T04:46:06.520Z,6.89
2022-10-24T04:48:33.139Z,6.88
2022-10-24T04:50:59.973Z,6.88
2022-10-24T04:53:26.817Z,6.87
2022-10-24T04:55:53.360Z,6.86
2022-10-24T04:58:20.930Z,6.82
2022-10-24T05:00:49.838Z,6.91
2022-10-24T05:03:20.029Z,6.95
2022-10-24T05:05:47.380Z,7.01
2022-10-24T05:08:13.948Z,7.05
2022-10-24T05:10:40.599Z,7.12
2022-10-24T05:13:07.230Z,7.18
2022-10-24T05:15:33.805Z,7.23
2022-10-24T05:18:00.762Z,7.34
2022-10-24T05:20:27.479Z,7.38
2022-10-24T05:22:54.074Z,7.40
2022-10-24T05:25:20.666Z,7.50
2022-10-24T05:27:47.363Z,7.56
2022-10-24T05:30:13.947Z,7.66
2022-10-24T05:32:40.774Z,7.73
2022-10-24T05:35:07.831Z,7.79
2022-10-24T05:37:35.926Z,8.01
2022-10-24T05:40:02.597Z,8.06
2022-10-24T05:42:29.189Z,8.13
2022-10-24T05:44:56.297Z,8.17
2022-10-24T05:47:24.681Z,8.28
2022-10-24T05:49:53.468Z,8.37
2022-10-24T05:52:21.169Z,8.47
2022-10-24T05:55:06.026Z,8.58
2022-10-24T05:57:33.822Z,8.67
2022-10-24T06:00:00.944Z,8.67
2022-10-24T06:02:28.233Z,8.74
2022-10-24T06:04:56.288Z,8.92
2022-10-24T06:07:23.119Z,9.18
2022-10-24T06:09:49.799Z,9.34
2022-10-24T06:12:16.572Z,9.50
2022-10-24T06:14:44.655Z,9.62
2022-10-24T06:17:12.086Z,9.58
2022-10-24T06:19:39.284Z,9.71
2022-10-24T06:22:06.540Z,9.61
2022-10-24T06:24:36.619Z,9.61
2022-10-24T06:27:03.822Z,9.92
2022-10-24T06:29:30.542Z,10.03
2022-10-24T06:31:57.163Z,9.97
2022-10-24T06:34:23.965Z,9.94
2022-10-24T06:36:51.003Z,9.93
2022-10-24T06:39:17.776Z,9.77
2022-10-24T06:41:44.577Z,9.73
2022-10-24T06:44:14.062Z,9.90
2022-10-24T06:46:41.379Z,10.18
2022-10-24T06:49:09.991Z,10.11
2022-10-24T06:51:36.642Z,10.19
2022-10-24T06:54:03.391Z,10.37
2022-10-24T06:56:29.959Z,10.72
2022-10-24T06:58:56.600Z,10.85
2022-10-24T07:01:24.543Z,11.03
2022-10-24T07:03:52.029Z,11.09
2022-10-24T07:06:20.549Z,11.05
2022-10-24T07:08:47.358Z,10.95
2022-10-24T07:11:14.428Z,11.20
2022-10-24T07:13:41.026Z,11.49
2022-10-24T07:16:07.868Z,11.64
2022-10-24T07:18:34.973Z,11.46
2022-10-24T07:21:02.891Z,11.50
2022-10-24T07:23:30.016Z,11.47
2022-10-24T07:26:00.825Z,11.76
2022-10-24T07:28:27.438Z,11.87
2022-10-24T07:30:54.100Z,12.03
2022-10-24T07:33:20.659Z,12.00
2022-10-24T07:35:47.521Z,12.43
2022-10-24T07:38:16.477Z,12.62
2022-10-24T07:40:45.253Z,12.56
2022-10-24T07:43:11.808Z,12.62
2022-10-24T07:45:39.412Z,12.85
2022-10-24T07:48:06.865Z,12.98
2022-10-24T07:50:34.775Z,13.00
2022-10-24T07:53:01.730Z,13.13
2022-10-24T07:55:28.545Z,13.37
2022-10-24T07:57:55.125Z,13.34
2022-10-24T08:00:21.781Z,13.45
2022-10-24T08:05:18.143Z,13.86
2022-10-24T08:08:00.351Z,13.93
2022-10-24T08:10:34.907Z,14.06
2022-10-24T08:13:01.731Z,14.32
2022-10-24T08:15:28.411Z,14.52
2022-10-24T08:17:55.195Z,14.62
2022-10-24T08:20:22.017Z,14.58
2022-10-24T08:22:48.667Z,14.34
2022-10-24T08:25:15.346Z,14.67
2022-10-24T08:30:14.454Z,15.27
2022-10-24T08:32:41.098Z,15.41
2022-10-24T08:35:07.938Z,15.60
2022-10-24T08:40:13.119Z,15.03
2022-10-24T08:42:39.841Z,15.44
2022-10-24T08:45:10.886Z,15.65
2022-10-24T08:47:45.477Z,15.75
2022-10-24T08:50:17.439Z,15.91
2022-10-24T08:52:47.862Z,16.02
2022-10-24T08:55:30.992Z,16.11
2022-10-24T08:58:05.293Z,16.45
2022-10-24T09:00:36.767Z,16.56
2022-10-24T09:03:03.667Z,16.70
2022-10-24T09:05:36.630Z,16.72
2022-10-24T09:08:07.129Z,17.04
2022-10-24T09:10:41.275Z,16.86
2022-10-24T09:13:13.034Z,16.53
2022-10-24T09:15:40.642Z,16.94
2022-10-24T09:18:14.297Z,17.18
2022-10-24T09:20:40.855Z,17.48
2022-10-24T09:23:07.508Z,17.46
2022-10-24T09:25:35.492Z,17.58
2022-10-24T09:28:03.692Z,17.82
2022-10-24T09:30:33.287Z,17.72
2022-10-24T09:33:04.545Z,18.03
2022-10-24T09:35:31.695Z,18.19
2022-10-24T09:37:59.397Z,18.39
2022-10-24T09:40:27.891Z,18.22
2022-10-24T09:43:18.624Z,18.43
2022-10-24T09:45:48.237Z,18.59
2022-10-24T09:48:17.438Z,18.54
2022-10-24T09:50:45.712Z,18.94
2022-10-24T09:53:39.594Z,18.91
2022-10-24T09:56:14.465Z,19.05
2022-10-24T09:58:41.741Z,19.21
2022-10-24T10:01:11.466Z,19.56
2022-10-24T10:03:38.173Z,19.52
2022-10-24T10:06:14.543Z,19.68
2022-10-24T10:08:41.322Z,19.44
2022-10-24T10:11:10.942Z,19.73
2022-10-24T10:13:53.667Z,19.84
2022-10-24T10:16:29.635Z,20.21
2022-10-24T10:19:16.440Z,20.34
2022-10-24T10:21:55.437Z,20.60
2022-10-24T10:24:46.132Z,20.55
2022-10-24T10:27:27.960Z,20.87
2022-10-24T10:30:17.784Z,21.23
2022-10-24T10:33:03.129Z,21.38
2022-10-24T10:35:47.769Z,21.44
2022-10-24T10:38:33.040Z,21.33
2022-10-24T10:41:02.581Z,21.29
2022-10-24T10:43:31.088Z,21.13
2022-10-24T10:46:00.684Z,21.50
2022-10-24T10:48:33.937Z,21.83
2022-10-24T10:51:07.351Z,21.84
2022-10-24T10:53:38.364Z,22.09
2022-10-24T10:56:04.997Z,22.23
2022-10-24T11:01:18.040Z,22.63
2022-10-24T11:03:58.648Z,22.85
2022-10-24T11:06:31.121Z,22.85
2022-10-24T11:09:00.606Z,22.81
2022-10-24T11:11:32.839Z,23.17
2022-10-24T11:14:08.102Z,23.32
2022-10-24T11:16:35.891Z,23.35
2022-10-24T11:19:22.455Z,23.39
2022-10-24T11:21:50.024Z,23.06
2022-10-24T11:24:21.789Z,23.22
2022-10-24T11:26:53.319Z,23.47
2022-10-24T11:29:19.872Z,23.38
2022-10-24T11:31:53.779Z,23.87
2022-10-24T11:34:24.060Z,24.10
2022-10-24T11:37:05.663Z,24.20
2022-10-24T11:39:52.644Z,23.88
2022-10-24T11:42:25.910Z,23.96
2022-10-24T11:45:00.705Z,24.27
2022-10-24T11:47:27.279Z,24.41
2022-10-24T11:49:58.143Z,24.48
2022-10-24T11:52:29.260Z,24.81
2022-10-24T11:54:55.792Z,24.72
2022-10-24T11:57:25.530Z,24.86
2022-10-24T11:59:53.495Z,24.95
2022-10-24T12:02:50.303Z,24.92
2022-10-24T12:05:29.106Z,25.51
2022-10-24T12:08:14.561Z,25.30
2022-10-24T12:11:00.094Z,25.27
2022-10-24T12:13:38.937Z,25.59
2022-10-24T12:16:05.581Z,25.82
2022-10-24T12:18:32.188Z,26.17
2022-10-24T12:21:02.662Z,26.65
2022-10-24T12:23:29.520Z,27.06
2022-10-24T12:26:07.427Z,27.55
2022-10-24T12:28:35.813Z,27.17
2022-10-24T12:31:11.328Z,28.41
2022-10-24T12:33:38.138Z,28.83
2022-10-24T12:36:04.826Z,29.15
2022-10-24T12:38:31.470Z,29.86
2022-10-24T12:40:59.463Z,30.83
2022-10-24T12:43:48.452Z,30.60
2022-10-24T12:46:18.879Z,31.34
2022-10-24T12:48:58.729Z,31.25
2022-10-24T12:51:36.368Z,32.00
2022-10-24T12:54:02.951Z,31.97
2022-10-24T12:56:30.150Z,31.31
2022-10-24T12:58:58.202Z,31.69
2022-10-24T13:01:35.666Z,31.71
2022-10-24T13:04:05.431Z,31.93
2022-10-24T13:06:52.320Z,32.29
2022-10-24T13:09:21.814Z,32.33
2022-10-24T13:11:55.051Z,31.89
2022-10-24T13:14:24.428Z,32.41
2022-10-24T13:17:08.173Z,32.93
2022-10-24T13:19:35.961Z,33.10
2022-10-24T13:22:02.632Z,32.91
2022-10-24T13:24:34.828Z,33.53
2022-10-24T13:27:04.299Z,33.48
2022-10-24T13:29:31.076Z,32.37
2022-10-24T13:32:03.760Z,32.87
2022-10-24T13:34:39.248Z,33.16
2022-10-24T13:37:24.559Z,33.74
2022-10-24T13:40:01.088Z,33.17
2022-10-24T13:42:40.254Z,32.12
2022-10-24T13:45:17.952Z,32.81
2022-10-24T13:47:45.480Z,32.68
2022-10-24T13:50:20.380Z,32.70
2022-10-24T13:52:49.628Z,33.03
2022-10-24T13:55:39.603Z,33.07
2022-10-24T13:58:06.416Z,33.13
2022-10-24T14:00:35.752Z,33.22
2022-10-24T14:03:04.304Z,32.82
2022-10-24T14:05:32.933Z,32.00
2022-10-24T14:08:01.076Z,32.57
2022-10-24T14:10:28.347Z,32.01
2022-10-24T14:12:57.407Z,32.44
2022-10-24T14:15:28.882Z,33.01
2022-10-24T14:17:58.646Z,32.73
2022-10-24T14:20:27.703Z,32.74
2022-10-24T14:22:54.686Z,32.25
2022-10-24T14:25:24.044Z,32.50
2022-10-24T14:27:52.047Z,31.93
2022-10-24T14:30:20.429Z,31.78
2022-10-24T14:32:47.092Z,31.40
2022-10-24T14:35:14.390Z,30.97
2022-10-24T14:37:41.614Z,30.74
2022-10-24T14:40:26.759Z,30.37
2022-10-24T14:42:53.490Z,29.66
2022-10-24T14:45:30.454Z,29.37
2022-10-24T14:47:59.176Z,29.11
2022-10-24T14:50:37.996Z,28.40
2022-10-24T14:53:04.827Z,27.99
2022-10-24T14:55:32.112Z,27.72
2022-10-24T14:57:58.728Z,27.58
2022-10-24T15:00:26.950Z,27.89
2022-10-24T15:02:55.169Z,27.48
2022-10-24T15:05:24.771Z,27.41
2022-10-24T15:08:20.392Z,27.16
2022-10-24T15:10:44.200Z,27.06
2022-10-24T15:13:14.347Z,26.44
2022-10-24T15:15:44.173Z,25.84
2022-10-24T15:18:33.880Z,25.58
2022-10-24T15:21:13.065Z,25.31
2022-10-24T15:23:49.366Z,25.22
2022-10-24T15:26:35.136Z,24.64
2022-10-24T15:29:07.865Z,24.50
2022-10-24T15:31:35.818Z,24.27
2022-10-24T15:34:02.521Z,23.92
2022-10-24T15:36:31.637Z,23.54
2022-10-24T15:39:25.099Z,23.43
2022-10-24T15:41:52.020Z,23.09
2022-10-24T15:44:24.807Z,22.81
2022-10-24T15:46:51.465Z,22.37
2022-10-24T15:49:18.129Z,22.27
2022-10-24T15:51:49.056Z,22.08
2022-10-24T15:54:17.971Z,21.67
2022-10-24T15:56:44.544Z,21.61
2022-10-24T15:59:12.740Z,21.26
2022-10-24T16:01:44.990Z,21.14
2022-10-24T16:04:11.675Z,20.87
2022-10-24T16:06:38.528Z,20.52
2022-10-24T16:09:07.105Z,20.22
2022-10-24T16:11:36.907Z,20.29
2022-10-24T16:14:04.451Z,20.10
2022-10-24T16:16:31.106Z,20.16
2022-10-24T16:18:57.783Z,19.81
2022-10-24T16:21:24.845Z,19.57
2022-10-24T16:26:18.296Z,19.54
2022-10-24T16:28:44.958Z,19.52
2022-10-24T16:31:11.520Z,19.36
2022-10-24T16:33:38.210Z,19.18
2022-10-24T16:36:05.265Z,19.11
2022-10-24T16:38:31.993Z,19.12
2022-10-24T16:40:58.623Z,18.96
2022-10-24T16:43:25.403Z,18.81
2022-10-24T16:46:01.872Z,18.61
2022-10-24T16:48:29.093Z,18.49
2022-10-24T16:50:55.983Z,18.33
2022-10-24T16:53:24.382Z,18.31
2022-10-24T16:55:52.481Z,18.18
2022-10-24T16:58:20.015Z,18.22
2022-10-24T17:00:47.653Z,18.02
2022-10-24T17:03:14.771Z,17.81
2022-10-24T17:05:41.536Z,17.73
2022-10-24T17:08:08.603Z,17.59
2022-10-24T17:10:35.237Z,17.51
2022-10-24T17:13:02.138Z,17.41
2022-10-24T17:15:29.934Z,17.47
2022-10-24T17:17:56.592Z,17.50
2022-10-24T17:20:23.164Z,17.32
2022-10-24T17:22:50.006Z,17.30
2022-10-24T17:25:21.784Z,17.16
2022-10-24T17:27:48.936Z,17.12
2022-10-24T17:30:17.753Z,16.91
2022-10-24T17:32:45.826Z,16.88
2022-10-24T17:35:14.804Z,16.77
2022-10-24T17:37:59.822Z,16.75
2022-10-24T17:40:28.212Z,16.32
2022-10-24T17:42:55.085Z,16.35
2022-10-24T17:45:23.615Z,16.30
2022-10-24T17:47:50.616Z,16.38
2022-10-24T17:50:17.444Z,16.22
2022-10-24T17:52:50.234Z,16.21
2022-10-24T17:58:13.088Z,16.06
2022-10-24T18:00:39.907Z,15.88
2022-10-24T18:03:08.751Z,15.80
2022-10-24T18:05:38.163Z,15.77
2022-10-24T18:08:07.065Z,15.63
2022-10-24T18:10:33.908Z,15.61
2022-10-24T18:13:00.759Z,15.26
2022-10-24T18:15:27.703Z,15.17
2022-10-24T18:17:54.357Z,15.19
2022-10-24T18:20:20.951Z,14.88
2022-10-24T18:22:47.925Z,14.88
2022-10-24T18:25:20.174Z,14.89
2022-10-24T18:27:49.479Z,14.81
2022-10-24T18:30:16.251Z,14.69
2022-10-24T18:32:43.051Z,14.69
2022-10-24T18:35:09.843Z,14.64
2022-10-24T18:37:36.528Z,14.58
2022-10-24T18:40:04.415Z,14.50
2022-10-24T18:42:50.770Z,14.38
2022-10-24T18:45:19.359Z,14.20
2022-10-24T18:47:46.546Z,14.20
2022-10-24T18:50:14.226Z,14.16
2022-10-24T18:52:46.766Z,14.11
2022-10-24T18:55:23.594Z,14.10
2022-10-24T18:57:50.708Z,13.94
2022-10-24T19:00:19.401Z,13.98
2022-10-24T19:02:53.817Z,13.93
2022-10-24T19:05:23.688Z,14.02
2022-10-24T19:07:51.426Z,13.85
2022-10-24T19:10:20.048Z,13.72
2022-10-24T19:12:48.180Z,13.71
2022-10-24T19:15:15.806Z,13.73
2022-10-24T19:17:42.928Z,13.74
2022-10-24T19:20:17.759Z,13.67
2022-10-24T19:22:45.395Z,13.62
2022-10-24T19:25:12.766Z,13.65
2022-10-24T19:27:40.508Z,13.57
2022-10-24T19:30:07.688Z,13.52
2022-10-24T19:32:34.497Z,13.46
2022-10-24T19:35:01.216Z,13.44
2022-10-24T19:37:28.529Z,13.35
2022-10-24T19:39:58.142Z,13.32
2022-10-24T19:42:24.923Z,13.31
2022-10-24T19:44:54.791Z,13.22
2022-10-24T19:47:21.709Z,13.18
2022-10-24T19:49:49.133Z,13.31
2022-10-24T19:52:15.836Z,13.20
2022-10-24T19:54:42.495Z,12.87
2022-10-24T19:57:09.139Z,12.82
2022-10-24T19:59:36.348Z,12.79
2022-10-24T20:02:03.527Z,12.69
2022-10-24T20:04:30.702Z,12.69
2022-10-24T20:06:57.350Z,12.76
2022-10-24T20:09:25.015Z,12.67
2022-10-24T20:11:51.560Z,12.68
2022-10-24T20:14:18.289Z,12.55
2022-10-24T20:16:44.816Z,12.38
2022-10-24T20:19:11.394Z,12.32
2022-10-24T20:21:38.114Z,12.32
2022-10-24T20:24:04.880Z,12.08
2022-10-24T20:26:31.546Z,11.91
2022-10-24T20:28:58.436Z,12.07
2022-10-24T20:31:26.674Z,12.08
2022-10-24T20:33:53.337Z,12.05
2022-10-24T20:36:21.326Z,12.13
2022-10-24T20:38:48.028Z,12.11
2022-10-24T20:41:14.732Z,11.97
2022-10-24T20:43:41.467Z,12.02
2022-10-24T20:46:08.225Z,11.97
2022-10-24T20:48:36.342Z,11.92
2022-10-24T20:51:13.448Z,11.77
2022-10-24T20:53:40.789Z,11.71
2022-10-24T20:56:08.907Z,11.67
2022-10-24T20:58:39.702Z,11.54
2022-10-24T21:01:11.049Z,11.52
2022-10-24T21:03:38.158Z,11.59
2022-10-24T21:06:06.169Z,11.54
2022-10-24T21:08:32.740Z,11.61
2022-10-24T21:10:59.438Z,11.63
2022-10-24T21:13:26.053Z,11.64
2022-10-24T21:15:56.762Z,11.41
2022-10-24T21:18:24.028Z,11.42
2022-10-24T21:20:50.737Z,11.38
2022-10-24T21:23:17.346Z,11.45
2022-10-24T21:25:43.961Z,11.54
2022-10-24T21:28:10.655Z,11.53
2022-10-24T21:30:37.345Z,11.53
2022-10-24T21:33:04.728Z,11.56
2022-10-24T21:35:31.440Z,11.53
2022-10-24T21:37:58.069Z,11.48
2022-10-24T21:40:24.824Z,11.48
2022-10-24T21:42:51.535Z,11.48
2022-10-24T21:45:18.322Z,11.42
2022-10-24T21:47:46.008Z,11.36
2022-10-24T21:50:12.637Z,11.35
2022-10-24T21:52:39.206Z,11.33
2022-10-24T21:55:06.042Z,11.23
2022-10-24T21:57:32.631Z,11.26
2022-10-24T21:59:59.208Z,11.20
2022-10-24T22:02:26.859Z,11.06
2022-10-24T22:04:53.533Z,11.09
2022-10-24T22:07:20.237Z,11.24
2022-10-24T22:09:46.807Z,11.05
2022-10-24T22:12:13.405Z,10.96
2022-10-24T22:14:41.024Z,10.82
2022-10-24T22:17:07.934Z,10.74
2022-10-24T22:19:34.515Z,10.92
2022-10-24T22:22:01.312Z,11.00
2022-10-24T22:24:27.921Z,10.88
2022-10-24T22:26:54.518Z,10.96
2022-10-24T22:29:22.006Z,10.81
2022-10-24T22:31:48.740Z,10.71
2022-10-24T22:34:16.892Z,10.61
2022-10-24T22:36:49.789Z,10.61
2022-10-24T22:39:25.847Z,10.54
2022-10-24T22:41:53.099Z,10.50
2022-10-24T22:44:20.973Z,10.48
2022-10-24T22:47:16.881Z,10.47
2022-10-24T22:49:58.074Z,10.56
2022-10-24T22:52:25.079Z,10.46
2022-10-24T22:54:52.482Z,10.45
2022-10-24T22:57:19.321Z,10.45
2022-10-24T22:59:47.471Z,10.42
2022-10-24T23:02:23.350Z,10.36
2022-10-24T23:04:59.340Z,10.34
2022-10-24T23:07:30.647Z,10.32
2022-10-24T23:09:57.264Z,10.28
2022-10-24T23:12:24.131Z,10.27
2022-10-24T23:14:51.239Z,10.23
2022-10-24T23:17:28.595Z,10.12
2022-10-24T23:19:56.223Z,10.18
2022-10-24T23:22:27.220Z,10.17
2022-10-24T23:24:55.102Z,10.17
2022-10-24T23:27:38.547Z,10.03
2022-10-24T23:30:07.020Z,10.00
2022-10-24T23:32:34.838Z,9.85
2022-10-24T23:35:01.689Z,9.75
2022-10-24T23:37:28.348Z,9.82
2022-10-24T23:39:55.307Z,9.76
2022-10-24T23:42:22.503Z,9.74
2022-10-24T23:44:49.283Z,9.69
2022-10-24T23:47:15.973Z,9.75
2022-10-24T23:49:51.451Z,9.69
2022-10-24T23:52:26.394Z,9.69
2022-10-24T23:54:53.446Z,9.57
2022-10-24T23:57:21.068Z,9.59
2022-10-24T23:59:47.633Z,9.57
